sensor_id;sensor_type;location;lat;lon;timestamp;P1;durP1;ratioP1;P2;durP2;ratioP2
4096;SDS011;2062;50.694;7.246;2022-12-29T00:01:46;3.00;;;0.70;;
4096;SDS011;2062;50.694;7.246;2022-12-29T00:04:13;3.33;;;0.70;;
4096;SDS011;2062;50.694;7.246;2022-12-29T00:06:41;2.95;;;0.60;;
4096;SDS011;2062;50.694;7.246;2022-12-29T00:09:09;2.65;;;0.55;;
4096;SDS011;2062;50.694;7.246;2022-12-29T00:11:38;2.80;;;0.60;;
4096;SDS011;2062;50.694;7.246;2022-12-29T00:14:05;3.03;;;0.50;;
4096;SDS011;2062;50.694;7.246;2022-12-29T00:16:51;2.58;;;0.63;;
4096;SDS011;2062;50.694;7.246;2022-12-29T00:19:18;2.65;;;0.52;;
4096;SDS011;2062;50.694;7.246;2022-12-29T00:22:02;2.95;;;0.60;;
4096;SDS011;2062;50.694;7.246;2022-12-29T00:24:47;3.67;;;0.80;;
4096;SDS011;2062;50.694;7.246;2022-12-29T00:27:37;2.63;;;0.50;;
4096;SDS011;2062;50.694;7.246;2022-12-29T00:30:22;3.00;;;0.47;;
4096;SDS011;2062;50.694;7.246;2022-12-29T00:33:09;2.08;;;0.43;;
4096;SDS011;2062;50.694;7.246;2022-12-29T00:35:56;3.63;;;0.50;;
4096;SDS011;2062;50.694;7.246;2022-12-29T00:38:26;2.40;;;0.50;;
4096;SDS011;2062;50.694;7.246;2022-12-29T00:41:11;3.07;;;0.43;;
4096;SDS011;2062;50.694;7.246;2022-12-29T00:43:56;2.60;;;0.40;;
4096;SDS011;2062;50.694;7.246;2022-12-29T00:46:32;2.47;;;0.43;;
4096;SDS011;2062;50.694;7.246;2022-12-29T00:49:00;2.40;;;0.40;;
4096;SDS011;2062;50.694;7.246;2022-12-29T00:51:45;2.10;;;0.50;;
4096;SDS011;2062;50.694;7.246;2022-12-29T00:54:12;2.33;;;0.50;;
4096;SDS011;2062;50.694;7.246;2022-12-29T00:56:40;2.20;;;0.50;;
4096;SDS011;2062;50.694;7.246;2022-12-29T00:59:11;1.90;;;0.40;;
4096;SDS011;2062;50.694;7.246;2022-12-29T01:01:38;2.05;;;0.40;;
4096;SDS011;2062;50.694;7.246;2022-12-29T01:04:05;2.28;;;0.40;;
4096;SDS011;2062;50.694;7.246;2022-12-29T01:06:32;2.97;;;0.60;;
4096;SDS011;2062;50.694;7.246;2022-12-29T01:09:00;2.00;;;0.40;;
4096;SDS011;2062;50.694;7.246;2022-12-29T01:11:45;2.40;;;0.50;;
4096;SDS011;2062;50.694;7.246;2022-12-29T01:14:13;2.88;;;0.50;;
4096;SDS011;2062;50.694;7.246;2022-12-29T01:16:41;2.58;;;0.47;;
4096;SDS011;2062;50.694;7.246;2022-12-29T01:19:07;2.30;;;0.50;;
4096;SDS011;2062;50.694;7.246;2022-12-29T01:21:35;2.53;;;0.50;;
4096;SDS011;2062;50.694;7.246;2022-12-29T01:24:02;2.45;;;0.45;;
4096;SDS011;2062;50.694;7.246;2022-12-29T01:26:30;2.95;;;0.60;;
4096;SDS011;2062;50.694;7.246;2022-12-29T01:28:56;3.47;;;0.60;;
4096;SDS011;2062;50.694;7.246;2022-12-29T01:31:25;3.37;;;0.53;;
4096;SDS011;2062;50.694;7.246;2022-12-29T01:33:51;2.63;;;0.50;;
4096;SDS011;2062;50.694;7.246;2022-12-29T01:36:18;2.33;;;0.52;;
4096;SDS011;2062;50.694;7.246;2022-12-29T01:38:45;2.33;;;0.50;;
4096;SDS011;2062;50.694;7.246;2022-12-29T01:41:13;2.10;;;0.40;;
4096;SDS011;2062;50.694;7.246;2022-12-29T01:43:41;2.57;;;0.50;;
4096;SDS011;2062;50.694;7.246;2022-12-29T01:46:13;2.83;;;0.50;;
4096;SDS011;2062;50.694;7.246;2022-12-29T01:48:46;2.90;;;0.50;;
4096;SDS011;2062;50.694;7.246;2022-12-29T01:51:15;2.28;;;0.40;;
4096;SDS011;2062;50.694;7.246;2022-12-29T01:53:43;3.72;;;0.65;;
4096;SDS011;2062;50.694;7.246;2022-12-29T01:56:11;2.13;;;0.40;;
4096;SDS011;2062;50.694;7.246;2022-12-29T01:58:44;2.17;;;0.50;;
4096;SDS011;2062;50.694;7.246;2022-12-29T02:01:14;2.28;;;0.47;;
4096;SDS011;2062;50.694;7.246;2022-12-29T02:03:47;1.90;;;0.40;;
4096;SDS011;2062;50.694;7.246;2022-12-29T02:06:26;1.90;;;0.40;;
4096;SDS011;2062;50.694;7.246;2022-12-29T02:09:00;2.10;;;0.50;;
4096;SDS011;2062;50.694;7.246;2022-12-29T02:11:27;2.67;;;0.40;;
4096;SDS011;2062;50.694;7.246;2022-12-29T02:13:55;2.78;;;0.63;;
4096;SDS011;2062;50.694;7.246;2022-12-29T02:16:28;3.55;;;0.43;;
4096;SDS011;2062;50.694;7.246;2022-12-29T02:19:04;2.42;;;0.50;;
4096;SDS011;2062;50.694;7.246;2022-12-29T02:21:54;2.57;;;0.50;;
4096;SDS011;2062;50.694;7.246;2022-12-29T02:27:48;2.25;;;0.50;;
4096;SDS011;2062;50.694;7.246;2022-12-29T02:33:18;2.60;;;0.50;;
4096;SDS011;2062;50.694;7.246;2022-12-29T02:36:00;2.60;;;0.40;;
4096;SDS011;2062;50.694;7.246;2022-12-29T02:38:44;2.10;;;0.40;;
4096;SDS011;2062;50.694;7.246;2022-12-29T02:41:19;3.53;;;0.60;;
4096;SDS011;2062;50.694;7.246;2022-12-29T02:43:50;2.42;;;0.47;;
4096;SDS011;2062;50.694;7.246;2022-12-29T02:46:27;4.00;;;0.60;;
4096;SDS011;2062;50.694;7.246;2022-12-29T02:49:03;2.30;;;0.60;;
4096;SDS011;2062;50.694;7.246;2022-12-29T02:51:36;2.30;;;0.43;;
4096;SDS011;2062;50.694;7.246;2022-12-29T02:54:09;2.55;;;0.50;;
4096;SDS011;2062;50.694;7.246;2022-12-29T02:56:54;2.88;;;0.47;;
4096;SDS011;2062;50.694;7.246;2022-12-29T02:59:21;2.45;;;0.60;;
4096;SDS011;2062;50.694;7.246;2022-12-29T03:01:57;4.10;;;0.60;;
4096;SDS011;2062;50.694;7.246;2022-12-29T03:07:40;4.60;;;0.65;;
4096;SDS011;2062;50.694;7.246;2022-12-29T03:10:17;2.60;;;0.50;;
4096;SDS011;2062;50.694;7.246;2022-12-29T03:12:54;2.85;;;0.70;;
4096;SDS011;2062;50.694;7.246;2022-12-29T03:15:50;2.50;;;0.50;;
4096;SDS011;2062;50.694;7.246;2022-12-29T03:18:43;2.10;;;0.50;;
4096;SDS011;2062;50.694;7.246;2022-12-29T03:21:16;2.90;;;0.55;;
4096;SDS011;2062;50.694;7.246;2022-12-29T03:24:11;2.78;;;0.70;;
4096;SDS011;2062;50.694;7.246;2022-12-29T03:26:49;2.63;;;0.60;;
4096;SDS011;2062;50.694;7.246;2022-12-29T03:29:19;3.03;;;0.70;;
4096;SDS011;2062;50.694;7.246;2022-12-29T03:31:47;2.40;;;0.50;;
4096;SDS011;2062;50.694;7.246;2022-12-29T03:34:18;2.83;;;0.65;;
4096;SDS011;2062;50.694;7.246;2022-12-29T03:36:48;2.28;;;0.40;;
4096;SDS011;2062;50.694;7.246;2022-12-29T03:39:18;2.80;;;0.88;;
4096;SDS011;2062;50.694;7.246;2022-12-29T03:41:49;2.30;;;0.50;;
4096;SDS011;2062;50.694;7.246;2022-12-29T03:44:20;2.97;;;0.60;;
4096;SDS011;2062;50.694;7.246;2022-12-29T03:46:47;3.03;;;0.68;;
4096;SDS011;2062;50.694;7.246;2022-12-29T03:49:14;2.55;;;0.52;;
4096;SDS011;2062;50.694;7.246;2022-12-29T03:51:42;2.45;;;0.50;;
4096;SDS011;2062;50.694;7.246;2022-12-29T03:54:09;3.10;;;0.60;;
4096;SDS011;2062;50.694;7.246;2022-12-29T03:56:36;2.17;;;0.50;;
4096;SDS011;2062;50.694;7.246;2022-12-29T03:59:03;2.90;;;0.65;;
4096;SDS011;2062;50.694;7.246;2022-12-29T04:01:29;2.40;;;0.50;;
4096;SDS011;2062;50.694;7.246;2022-12-29T04:03:56;2.60;;;0.50;;
4096;SDS011;2062;50.694;7.246;2022-12-29T04:06:23;2.10;;;0.50;;
4096;SDS011;2062;50.694;7.246;2022-12-29T04:08:51;2.60;;;0.50;;
4096;SDS011;2062;50.694;7.246;2022-12-29T04:11:18;3.42;;;0.50;;
4096;SDS011;2062;50.694;7.246;2022-12-29T04:13:45;2.53;;;0.50;;
4096;SDS011;2062;50.694;7.246;2022-12-29T04:16:12;2.42;;;0.50;;
4096;SDS011;2062;50.694;7.246;2022-12-29T04:18:39;2.13;;;0.40;;
4096;SDS011;2062;50.694;7.246;2022-12-29T04:21:06;2.67;;;0.50;;
4096;SDS011;2062;50.694;7.246;2022-12-29T04:23:32;2.63;;;0.60;;
4096;SDS011;2062;50.694;7.246;2022-12-29T04:26:04;1.77;;;0.40;;
4096;SDS011;2062;50.694;7.246;2022-12-29T04:28:32;2.35;;;0.68;;
4096;SDS011;2062;50.694;7.246;2022-12-29T04:30:59;3.07;;;0.43;;
4096;SDS011;2062;50.694;7.246;2022-12-29T04:33:26;2.45;;;0.50;;
4096;SDS011;2062;50.694;7.246;2022-12-29T04:35:53;2.53;;;0.40;;
4096;SDS011;2062;50.694;7.246;2022-12-29T04:38:20;2.80;;;0.40;;
4096;SDS011;2062;50.694;7.246;2022-12-29T04:40:48;2.28;;;0.45;;
4096;SDS011;2062;50.694;7.246;2022-12-29T04:43:17;2.70;;;0.60;;
4096;SDS011;2062;50.694;7.246;2022-12-29T04:45:44;2.50;;;0.50;;
4096;SDS011;2062;50.694;7.246;2022-12-29T04:48:12;3.30;;;0.60;;
4096;SDS011;2062;50.694;7.246;2022-12-29T04:50:41;1.90;;;0.30;;
4096;SDS011;2062;50.694;7.246;2022-12-29T04:53:08;3.35;;;0.80;;
4096;SDS011;2062;50.694;7.246;2022-12-29T04:55:35;2.87;;;0.50;;
4096;SDS011;2062;50.694;7.246;2022-12-29T04:58:02;4.97;;;0.50;;
4096;SDS011;2062;50.694;7.246;2022-12-29T05:00:45;3.28;;;0.50;;
4096;SDS011;2062;50.694;7.246;2022-12-29T05:03:12;2.63;;;0.43;;
4096;SDS011;2062;50.694;7.246;2022-12-29T05:05:40;2.58;;;0.50;;
4096;SDS011;2062;50.694;7.246;2022-12-29T05:08:07;2.17;;;0.40;;
4096;SDS011;2062;50.694;7.246;2022-12-29T05:10:36;1.90;;;0.40;;
4096;SDS011;2062;50.694;7.246;2022-12-29T05:13:03;2.50;;;0.60;;
4096;SDS011;2062;50.694;7.246;2022-12-29T05:15:30;2.42;;;0.52;;
4096;SDS011;2062;50.694;7.246;2022-12-29T05:17:58;3.35;;;0.70;;
4096;SDS011;2062;50.694;7.246;2022-12-29T05:20:25;2.20;;;0.53;;
4096;SDS011;2062;50.694;7.246;2022-12-29T05:22:52;2.10;;;0.43;;
4096;SDS011;2062;50.694;7.246;2022-12-29T05:25:18;2.42;;;0.57;;
4096;SDS011;2062;50.694;7.246;2022-12-29T05:27:45;2.28;;;0.45;;
4096;SDS011;2062;50.694;7.246;2022-12-29T05:30:12;2.58;;;0.50;;
4096;SDS011;2062;50.694;7.246;2022-12-29T05:32:39;3.67;;;0.50;;
4096;SDS011;2062;50.694;7.246;2022-12-29T05:35:08;2.65;;;0.55;;
4096;SDS011;2062;50.694;7.246;2022-12-29T05:37:35;3.03;;;0.65;;
4096;SDS011;2062;50.694;7.246;2022-12-29T05:40:01;2.72;;;0.60;;
4096;SDS011;2062;50.694;7.246;2022-12-29T05:42:29;2.83;;;0.55;;
4096;SDS011;2062;50.694;7.246;2022-12-29T05:44:55;3.73;;;0.70;;
4096;SDS011;2062;50.694;7.246;2022-12-29T05:47:22;3.05;;;0.60;;
4096;SDS011;2062;50.694;7.246;2022-12-29T05:49:49;2.85;;;0.65;;
4096;SDS011;2062;50.694;7.246;2022-12-29T05:52:18;2.25;;;0.40;;
4096;SDS011;2062;50.694;7.246;2022-12-29T05:54:44;2.75;;;0.52;;
4096;SDS011;2062;50.694;7.246;2022-12-29T05:57:12;5.13;;;0.80;;
4096;SDS011;2062;50.694;7.246;2022-12-29T05:59:39;2.70;;;0.60;;
4096;SDS011;2062;50.694;7.246;2022-12-29T06:02:05;2.97;;;0.70;;
4096;SDS011;2062;50.694;7.246;2022-12-29T06:04:32;3.72;;;0.60;;
4096;SDS011;2062;50.694;7.246;2022-12-29T06:06:59;3.33;;;0.73;;
4096;SDS011;2062;50.694;7.246;2022-12-29T06:09:27;2.67;;;0.60;;
4096;SDS011;2062;50.694;7.246;2022-12-29T06:11:54;2.80;;;0.60;;
4096;SDS011;2062;50.694;7.246;2022-12-29T06:14:20;3.33;;;0.90;;
4096;SDS011;2062;50.694;7.246;2022-12-29T06:16:47;2.78;;;0.57;;
4096;SDS011;2062;50.694;7.246;2022-12-29T06:19:14;3.07;;;0.60;;
4096;SDS011;2062;50.694;7.246;2022-12-29T06:21:41;3.83;;;0.57;;
4096;SDS011;2062;50.694;7.246;2022-12-29T06:24:07;2.45;;;0.60;;
4096;SDS011;2062;50.694;7.246;2022-12-29T06:26:37;4.35;;;0.70;;
4096;SDS011;2062;50.694;7.246;2022-12-29T06:29:05;3.45;;;0.75;;
4096;SDS011;2062;50.694;7.246;2022-12-29T06:31:33;3.20;;;0.63;;
4096;SDS011;2062;50.694;7.246;2022-12-29T06:33:59;2.85;;;0.60;;
4096;SDS011;2062;50.694;7.246;2022-12-29T06:36:27;2.72;;;0.65;;
4096;SDS011;2062;50.694;7.246;2022-12-29T06:38:54;3.95;;;0.63;;
4096;SDS011;2062;50.694;7.246;2022-12-29T06:41:21;5.53;;;0.82;;
4096;SDS011;2062;50.694;7.246;2022-12-29T06:43:49;3.07;;;0.60;;
4096;SDS011;2062;50.694;7.246;2022-12-29T06:46:16;3.15;;;0.65;;
4096;SDS011;2062;50.694;7.246;2022-12-29T06:48:43;3.20;;;0.80;;
4096;SDS011;2062;50.694;7.246;2022-12-29T06:51:09;2.80;;;0.63;;
4096;SDS011;2062;50.694;7.246;2022-12-29T06:53:36;3.92;;;0.95;;
4096;SDS011;2062;50.694;7.246;2022-12-29T06:56:04;2.43;;;0.60;;
4096;SDS011;2062;50.694;7.246;2022-12-29T06:58:31;3.28;;;0.65;;
4096;SDS011;2062;50.694;7.246;2022-12-29T07:00:59;4.13;;;0.80;;
4096;SDS011;2062;50.694;7.246;2022-12-29T07:03:26;3.55;;;0.60;;
4096;SDS011;2062;50.694;7.246;2022-12-29T07:05:53;2.67;;;0.70;;
4096;SDS011;2062;50.694;7.246;2022-12-29T07:08:20;2.40;;;0.60;;
4096;SDS011;2062;50.694;7.246;2022-12-29T07:10:46;2.70;;;0.60;;
4096;SDS011;2062;50.694;7.246;2022-12-29T07:13:13;2.70;;;0.70;;
4096;SDS011;2062;50.694;7.246;2022-12-29T07:15:40;2.70;;;0.60;;
4096;SDS011;2062;50.694;7.246;2022-12-29T07:18:08;3.17;;;0.70;;
4096;SDS011;2062;50.694;7.246;2022-12-29T07:20:35;2.50;;;0.50;;
4096;SDS011;2062;50.694;7.246;2022-12-29T07:23:02;2.08;;;0.40;;
4096;SDS011;2062;50.694;7.246;2022-12-29T07:25:29;2.42;;;0.45;;
4096;SDS011;2062;50.694;7.246;2022-12-29T07:27:56;2.50;;;0.50;;
4096;SDS011;2062;50.694;7.246;2022-12-29T07:30:23;2.83;;;0.50;;
4096;SDS011;2062;50.694;7.246;2022-12-29T07:32:52;2.77;;;0.40;;
4096;SDS011;2062;50.694;7.246;2022-12-29T07:35:20;1.88;;;0.40;;
4096;SDS011;2062;50.694;7.246;2022-12-29T07:37:47;2.00;;;0.30;;
4096;SDS011;2062;50.694;7.246;2022-12-29T07:40:14;2.30;;;0.40;;
4096;SDS011;2062;50.694;7.246;2022-12-29T07:42:41;3.35;;;0.50;;
4096;SDS011;2062;50.694;7.246;2022-12-29T07:45:08;1.97;;;0.40;;
4096;SDS011;2062;50.694;7.246;2022-12-29T07:47:35;1.85;;;0.30;;
4096;SDS011;2062;50.694;7.246;2022-12-29T07:50:02;1.77;;;0.20;;
4096;SDS011;2062;50.694;7.246;2022-12-29T07:52:31;2.20;;;0.40;;
4096;SDS011;2062;50.694;7.246;2022-12-29T07:54:59;2.53;;;0.40;;
4096;SDS011;2062;50.694;7.246;2022-12-29T07:57:26;2.17;;;0.40;;
4096;SDS011;2062;50.694;7.246;2022-12-29T07:59:53;2.28;;;0.30;;
4096;SDS011;2062;50.694;7.246;2022-12-29T08:02:20;2.80;;;0.40;;
4096;SDS011;2062;50.694;7.246;2022-12-29T08:04:47;2.38;;;0.45;;
4096;SDS011;2062;50.694;7.246;2022-12-29T08:07:13;1.98;;;0.35;;
4096;SDS011;2062;50.694;7.246;2022-12-29T08:09:41;1.70;;;0.30;;
4096;SDS011;2062;50.694;7.246;2022-12-29T08:12:08;2.15;;;0.30;;
4096;SDS011;2062;50.694;7.246;2022-12-29T08:14:36;2.40;;;0.40;;
4096;SDS011;2062;50.694;7.246;2022-12-29T08:17:02;2.80;;;0.40;;
4096;SDS011;2062;50.694;7.246;2022-12-29T08:19:29;2.38;;;0.40;;
4096;SDS011;2062;50.694;7.246;2022-12-29T08:21:56;2.00;;;0.43;;
4096;SDS011;2062;50.694;7.246;2022-12-29T08:24:23;2.03;;;0.40;;
4096;SDS011;2062;50.694;7.246;2022-12-29T08:26:51;3.40;;;0.38;;
4096;SDS011;2062;50.694;7.246;2022-12-29T08:29:18;2.88;;;0.40;;
4096;SDS011;2062;50.694;7.246;2022-12-29T08:31:46;1.98;;;0.30;;
4096;SDS011;2062;50.694;7.246;2022-12-29T08:34:13;2.90;;;0.40;;
4096;SDS011;2062;50.694;7.246;2022-12-29T08:36:40;2.47;;;0.30;;
4096;SDS011;2062;50.694;7.246;2022-12-29T08:39:07;2.60;;;0.30;;
4096;SDS011;2062;50.694;7.246;2022-12-29T08:41:33;2.92;;;0.40;;
4096;SDS011;2062;50.694;7.246;2022-12-29T08:44:01;2.28;;;0.47;;
4096;SDS011;2062;50.694;7.246;2022-12-29T08:46:28;2.10;;;0.30;;
4096;SDS011;2062;50.694;7.246;2022-12-29T08:48:55;2.55;;;0.40;;
4096;SDS011;2062;50.694;7.246;2022-12-29T08:51:22;1.92;;;0.47;;
4096;SDS011;2062;50.694;7.246;2022-12-29T08:53:54;3.75;;;0.40;;
4096;SDS011;2062;50.694;7.246;2022-12-29T08:56:21;4.07;;;0.55;;
4096;SDS011;2062;50.694;7.246;2022-12-29T08:58:51;3.27;;;0.33;;
4096;SDS011;2062;50.694;7.246;2022-12-29T09:01:20;5.68;;;0.40;;
4096;SDS011;2062;50.694;7.246;2022-12-29T09:03:47;3.80;;;0.40;;
4096;SDS011;2062;50.694;7.246;2022-12-29T09:06:14;3.20;;;0.50;;
4096;SDS011;2062;50.694;7.246;2022-12-29T09:08:42;3.05;;;0.30;;
4096;SDS011;2062;50.694;7.246;2022-12-29T09:11:11;1.97;;;0.40;;
4096;SDS011;2062;50.694;7.246;2022-12-29T09:13:40;3.58;;;0.47;;
4096;SDS011;2062;50.694;7.246;2022-12-29T09:16:07;3.28;;;0.50;;
4096;SDS011;2062;50.694;7.246;2022-12-29T09:18:36;3.03;;;0.50;;
4096;SDS011;2062;50.694;7.246;2022-12-29T09:21:04;3.70;;;0.47;;
4096;SDS011;2062;50.694;7.246;2022-12-29T09:23:31;4.13;;;0.47;;
4096;SDS011;2062;50.694;7.246;2022-12-29T09:25:59;4.47;;;0.38;;
4096;SDS011;2062;50.694;7.246;2022-12-29T09:28:26;5.25;;;0.65;;
4096;SDS011;2062;50.694;7.246;2022-12-29T09:30:55;3.17;;;0.38;;
4096;SDS011;2062;50.694;7.246;2022-12-29T09:33:23;3.72;;;0.40;;
4096;SDS011;2062;50.694;7.246;2022-12-29T09:35:52;3.00;;;0.40;;
4096;SDS011;2062;50.694;7.246;2022-12-29T09:38:20;3.72;;;0.30;;
4096;SDS011;2062;50.694;7.246;2022-12-29T09:40:49;6.03;;;0.50;;
4096;SDS011;2062;50.694;7.246;2022-12-29T09:43:20;6.18;;;0.60;;
4096;SDS011;2062;50.694;7.246;2022-12-29T09:46:03;3.47;;;0.40;;
4096;SDS011;2062;50.694;7.246;2022-12-29T09:48:40;4.13;;;0.50;;
4096;SDS011;2062;50.694;7.246;2022-12-29T09:51:13;5.22;;;0.50;;
4096;SDS011;2062;50.694;7.246;2022-12-29T09:53:43;4.78;;;0.70;;
4096;SDS011;2062;50.694;7.246;2022-12-29T09:56:13;3.92;;;0.50;;
4096;SDS011;2062;50.694;7.246;2022-12-29T09:58:44;3.30;;;0.70;;
4096;SDS011;2062;50.694;7.246;2022-12-29T10:01:17;3.43;;;0.40;;
4096;SDS011;2062;50.694;7.246;2022-12-29T10:03:54;3.10;;;0.40;;
4096;SDS011;2062;50.694;7.246;2022-12-29T10:06:24;4.28;;;0.50;;
4096;SDS011;2062;50.694;7.246;2022-12-29T10:08:57;5.68;;;0.52;;
4096;SDS011;2062;50.694;7.246;2022-12-29T10:11:31;4.47;;;0.60;;
4096;SDS011;2062;50.694;7.246;2022-12-29T10:14:10;5.00;;;0.63;;
4096;SDS011;2062;50.694;7.246;2022-12-29T10:16:46;4.10;;;0.50;;
4096;SDS011;2062;50.694;7.246;2022-12-29T10:19:22;4.20;;;0.55;;
4096;SDS011;2062;50.694;7.246;2022-12-29T10:22:12;3.15;;;0.40;;
4096;SDS011;2062;50.694;7.246;2022-12-29T10:24:47;3.38;;;0.60;;
4096;SDS011;2062;50.694;7.246;2022-12-29T10:27:16;4.80;;;0.60;;
4096;SDS011;2062;50.694;7.246;2022-12-29T10:29:45;3.15;;;0.40;;
4096;SDS011;2062;50.694;7.246;2022-12-29T10:32:21;6.68;;;0.60;;
4096;SDS011;2062;50.694;7.246;2022-12-29T10:34:53;3.78;;;0.50;;
4096;SDS011;2062;50.694;7.246;2022-12-29T10:37:27;4.55;;;0.55;;
4096;SDS011;2062;50.694;7.246;2022-12-29T10:39:59;4.20;;;0.60;;
4096;SDS011;2062;50.694;7.246;2022-12-29T10:42:36;3.65;;;0.40;;
4096;SDS011;2062;50.694;7.246;2022-12-29T10:45:10;4.97;;;0.70;;
4096;SDS011;2062;50.694;7.246;2022-12-29T10:47:40;2.75;;;0.47;;
4096;SDS011;2062;50.694;7.246;2022-12-29T10:50:13;3.55;;;0.80;;
4096;SDS011;2062;50.694;7.246;2022-12-29T10:52:41;3.00;;;0.43;;
4096;SDS011;2062;50.694;7.246;2022-12-29T10:55:11;4.70;;;0.47;;
4096;SDS011;2062;50.694;7.246;2022-12-29T10:57:44;4.10;;;0.50;;
4096;SDS011;2062;50.694;7.246;2022-12-29T11:00:13;4.40;;;0.60;;
4096;SDS011;2062;50.694;7.246;2022-12-29T11:02:51;5.00;;;0.60;;
4096;SDS011;2062;50.694;7.246;2022-12-29T11:05:39;4.40;;;0.50;;
4096;SDS011;2062;50.694;7.246;2022-12-29T11:08:14;5.00;;;0.70;;
4096;SDS011;2062;50.694;7.246;2022-12-29T11:10:43;2.90;;;0.45;;
4096;SDS011;2062;50.694;7.246;2022-12-29T11:13:12;4.28;;;0.57;;
4096;SDS011;2062;50.694;7.246;2022-12-29T11:15:41;4.00;;;0.60;;
4096;SDS011;2062;50.694;7.246;2022-12-29T11:18:17;5.80;;;0.63;;
4096;SDS011;2062;50.694;7.246;2022-12-29T11:20:46;3.65;;;0.70;;
4096;SDS011;2062;50.694;7.246;2022-12-29T11:23:31;3.97;;;0.65;;
4096;SDS011;2062;50.694;7.246;2022-12-29T11:26:07;4.00;;;0.50;;
4096;SDS011;2062;50.694;7.246;2022-12-29T11:28:46;3.85;;;0.55;;
4096;SDS011;2062;50.694;7.246;2022-12-29T11:31:17;9.30;;;0.90;;
4096;SDS011;2062;50.694;7.246;2022-12-29T11:33:47;3.03;;;0.40;;
4096;SDS011;2062;50.694;7.246;2022-12-29T11:36:15;7.68;;;0.80;;
4096;SDS011;2062;50.694;7.246;2022-12-29T11:38:47;4.47;;;0.63;;
4096;SDS011;2062;50.694;7.246;2022-12-29T11:41:19;5.57;;;0.80;;
4096;SDS011;2062;50.694;7.246;2022-12-29T11:43:48;3.77;;;0.50;;
4096;SDS011;2062;50.694;7.246;2022-12-29T11:46:16;5.63;;;0.68;;
4096;SDS011;2062;50.694;7.246;2022-12-29T11:48:46;5.05;;;0.55;;
4096;SDS011;2062;50.694;7.246;2022-12-29T11:51:20;3.50;;;0.60;;
4096;SDS011;2062;50.694;7.246;2022-12-29T11:53:51;4.53;;;0.60;;
4096;SDS011;2062;50.694;7.246;2022-12-29T11:56:22;5.13;;;0.60;;
4096;SDS011;2062;50.694;7.246;2022-12-29T12:01:50;5.28;;;0.68;;
4096;SDS011;2062;50.694;7.246;2022-12-29T12:04:18;3.28;;;0.40;;
4096;SDS011;2062;50.694;7.246;2022-12-29T12:06:47;4.20;;;0.55;;
4096;SDS011;2062;50.694;7.246;2022-12-29T12:09:29;5.40;;;0.63;;
4096;SDS011;2062;50.694;7.246;2022-12-29T12:11:58;3.05;;;0.40;;
4096;SDS011;2062;50.694;7.246;2022-12-29T12:14:29;3.17;;;0.60;;
4096;SDS011;2062;50.694;7.246;2022-12-29T12:17:04;3.63;;;0.55;;
4096;SDS011;2062;50.694;7.246;2022-12-29T12:19:38;3.53;;;0.80;;
4096;SDS011;2062;50.694;7.246;2022-12-29T12:22:10;5.27;;;0.50;;
4096;SDS011;2062;50.694;7.246;2022-12-29T12:24:44;4.72;;;0.60;;
4096;SDS011;2062;50.694;7.246;2022-12-29T12:27:16;6.60;;;0.80;;
4096;SDS011;2062;50.694;7.246;2022-12-29T12:29:50;2.80;;;0.57;;
4096;SDS011;2062;50.694;7.246;2022-12-29T12:32:24;6.18;;;0.70;;
4096;SDS011;2062;50.694;7.246;2022-12-29T12:38:03;4.60;;;0.70;;
4096;SDS011;2062;50.694;7.246;2022-12-29T12:40:46;5.50;;;0.68;;
4096;SDS011;2062;50.694;7.246;2022-12-29T12:43:29;5.70;;;0.73;;
4096;SDS011;2062;50.694;7.246;2022-12-29T12:49:15;5.43;;;0.80;;
4096;SDS011;2062;50.694;7.246;2022-12-29T12:52:05;6.82;;;0.70;;
4096;SDS011;2062;50.694;7.246;2022-12-29T12:54:44;6.10;;;1.13;;
4096;SDS011;2062;50.694;7.246;2022-12-29T12:57:25;5.88;;;0.60;;
4096;SDS011;2062;50.694;7.246;2022-12-29T13:00:00;7.82;;;0.77;;
4096;SDS011;2062;50.694;7.246;2022-12-29T13:02:35;4.97;;;0.50;;
4096;SDS011;2062;50.694;7.246;2022-12-29T13:08:29;3.90;;;0.63;;
4096;SDS011;2062;50.694;7.246;2022-12-29T13:11:17;4.15;;;0.60;;
4096;SDS011;2062;50.694;7.246;2022-12-29T13:13:58;7.85;;;0.98;;
4096;SDS011;2062;50.694;7.246;2022-12-29T13:16:43;5.30;;;0.70;;
4096;SDS011;2062;50.694;7.246;2022-12-29T13:19:20;4.22;;;0.60;;
4096;SDS011;2062;50.694;7.246;2022-12-29T13:21:56;5.93;;;0.70;;
4096;SDS011;2062;50.694;7.246;2022-12-29T13:24:34;8.65;;;0.65;;
4096;SDS011;2062;50.694;7.246;2022-12-29T13:27:13;5.90;;;0.68;;
4096;SDS011;2062;50.694;7.246;2022-12-29T13:29:47;5.97;;;0.77;;
4096;SDS011;2062;50.694;7.246;2022-12-29T13:32:25;6.57;;;0.88;;
4096;SDS011;2062;50.694;7.246;2022-12-29T13:35:10;6.20;;;0.80;;
4096;SDS011;2062;50.694;7.246;2022-12-29T13:37:48;5.78;;;0.68;;
4096;SDS011;2062;50.694;7.246;2022-12-29T13:40:21;4.50;;;0.82;;
4096;SDS011;2062;50.694;7.246;2022-12-29T13:42:50;7.33;;;1.00;;
4096;SDS011;2062;50.694;7.246;2022-12-29T13:45:20;6.03;;;0.77;;
4096;SDS011;2062;50.694;7.246;2022-12-29T13:47:51;4.32;;;0.68;;
4096;SDS011;2062;50.694;7.246;2022-12-29T13:50:22;5.03;;;0.60;;
4096;SDS011;2062;50.694;7.246;2022-12-29T13:52:54;5.13;;;0.80;;
4096;SDS011;2062;50.694;7.246;2022-12-29T13:55:26;6.80;;;0.60;;
4096;SDS011;2062;50.694;7.246;2022-12-29T13:57:59;5.22;;;0.73;;
4096;SDS011;2062;50.694;7.246;2022-12-29T14:03:44;4.10;;;0.60;;
4096;SDS011;2062;50.694;7.246;2022-12-29T14:06:19;5.78;;;0.77;;
4096;SDS011;2062;50.694;7.246;2022-12-29T14:08:49;6.53;;;0.60;;
4096;SDS011;2062;50.694;7.246;2022-12-29T14:11:20;3.55;;;0.70;;
4096;SDS011;2062;50.694;7.246;2022-12-29T14:13:50;6.05;;;0.60;;
4096;SDS011;2062;50.694;7.246;2022-12-29T14:16:32;5.28;;;0.95;;
4096;SDS011;2062;50.694;7.246;2022-12-29T14:19:04;6.63;;;1.00;;
4096;SDS011;2062;50.694;7.246;2022-12-29T14:21:35;6.23;;;0.93;;
4096;SDS011;2062;50.694;7.246;2022-12-29T14:30:04;7.80;;;0.95;;
4096;SDS011;2062;50.694;7.246;2022-12-29T14:33:02;6.30;;;1.05;;
4096;SDS011;2062;50.694;7.246;2022-12-29T14:35:39;3.80;;;0.70;;
4096;SDS011;2062;50.694;7.246;2022-12-29T14:38:14;8.05;;;0.80;;
4096;SDS011;2062;50.694;7.246;2022-12-29T14:40:44;6.25;;;0.77;;
4096;SDS011;2062;50.694;7.246;2022-12-29T14:43:12;6.35;;;0.80;;
4096;SDS011;2062;50.694;7.246;2022-12-29T14:45:44;7.50;;;0.80;;
4096;SDS011;2062;50.694;7.246;2022-12-29T14:48:25;6.80;;;0.77;;
4096;SDS011;2062;50.694;7.246;2022-12-29T14:51:00;7.43;;;1.15;;
4096;SDS011;2062;50.694;7.246;2022-12-29T14:53:41;5.45;;;0.50;;
4096;SDS011;2062;50.694;7.246;2022-12-29T14:56:10;4.93;;;0.60;;
4096;SDS011;2062;50.694;7.246;2022-12-29T14:58:41;5.20;;;0.95;;
4096;SDS011;2062;50.694;7.246;2022-12-29T15:01:15;5.47;;;0.80;;
4096;SDS011;2062;50.694;7.246;2022-12-29T15:03:47;4.53;;;0.70;;
4096;SDS011;2062;50.694;7.246;2022-12-29T15:06:17;7.10;;;0.80;;
4096;SDS011;2062;50.694;7.246;2022-12-29T15:08:49;5.53;;;1.05;;
4096;SDS011;2062;50.694;7.246;2022-12-29T15:11:19;7.45;;;0.80;;
4096;SDS011;2062;50.694;7.246;2022-12-29T15:13:47;5.00;;;0.77;;
4096;SDS011;2062;50.694;7.246;2022-12-29T15:16:21;4.43;;;0.60;;
4096;SDS011;2062;50.694;7.246;2022-12-29T15:18:50;5.93;;;0.90;;
4096;SDS011;2062;50.694;7.246;2022-12-29T15:21:18;3.47;;;0.70;;
4096;SDS011;2062;50.694;7.246;2022-12-29T15:23:49;6.15;;;0.70;;
4096;SDS011;2062;50.694;7.246;2022-12-29T15:26:17;6.10;;;0.70;;
4096;SDS011;2062;50.694;7.246;2022-12-29T15:28:47;4.97;;;0.68;;
4096;SDS011;2062;50.694;7.246;2022-12-29T15:31:16;7.70;;;0.90;;
4096;SDS011;2062;50.694;7.246;2022-12-29T15:33:44;4.50;;;0.95;;
4096;SDS011;2062;50.694;7.246;2022-12-29T15:36:16;7.85;;;0.98;;
4096;SDS011;2062;50.694;7.246;2022-12-29T15:38:46;6.90;;;0.60;;
4096;SDS011;2062;50.694;7.246;2022-12-29T15:41:21;5.63;;;0.80;;
4096;SDS011;2062;50.694;7.246;2022-12-29T15:43:54;4.95;;;0.80;;
4096;SDS011;2062;50.694;7.246;2022-12-29T15:46:32;6.13;;;0.82;;
4096;SDS011;2062;50.694;7.246;2022-12-29T15:48:59;4.53;;;0.70;;
4096;SDS011;2062;50.694;7.246;2022-12-29T15:51:28;8.80;;;1.10;;
4096;SDS011;2062;50.694;7.246;2022-12-29T15:53:57;6.55;;;0.90;;
4096;SDS011;2062;50.694;7.246;2022-12-29T15:56:24;7.85;;;0.80;;
4096;SDS011;2062;50.694;7.246;2022-12-29T15:58:55;5.65;;;0.70;;
4096;SDS011;2062;50.694;7.246;2022-12-29T16:01:23;5.07;;;1.00;;
4096;SDS011;2062;50.694;7.246;2022-12-29T16:03:54;6.77;;;1.10;;
4096;SDS011;2062;50.694;7.246;2022-12-29T16:06:26;7.30;;;0.95;;
4096;SDS011;2062;50.694;7.246;2022-12-29T16:08:57;5.70;;;0.98;;
4096;SDS011;2062;50.694;7.246;2022-12-29T16:11:26;4.82;;;0.65;;